sensor_id;sensor_type;location;lat;lon;timestamp;temperature;humidity
70550;DHT22;58101;48.658;2.328;2023-07-29T00:01:27;20.20;99.90
70550;DHT22;58101;48.658;2.328;2023-07-29T00:03:53;20.20;99.90
70550;DHT22;58101;48.658;2.328;2023-07-29T00:06:18;20.20;99.90
70550;DHT22;58101;48.658;2.328;2023-07-29T00:08:44;20.20;99.90
70550;DHT22;58101;48.658;2.328;2023-07-29T00:11:09;20.10;99.90
70550;DHT22;58101;48.658;2.328;2023-07-29T00:13:35;20.10;99.90
70550;DHT22;58101;48.658;2.328;2023-07-29T00:16:00;20.10;99.90
70550;DHT22;58101;48.658;2.328;2023-07-29T00:18:26;20.00;99.90
70550;DHT22;58101;48.658;2.328;2023-07-29T00:20:53;20.00;99.90
70550;DHT22;58101;48.658;2.328;2023-07-29T00:23:18;19.90;99.90
70550;DHT22;58101;48.658;2.328;2023-07-29T00:25:47;19.90;99.90
70550;DHT22;58101;48.658;2.328;2023-07-29T00:28:13;19.90;99.90
70550;DHT22;58101;48.658;2.328;2023-07-29T00:30:38;19.90;99.90
70550;DHT22;58101;48.658;2.328;2023-07-29T00:33:04;19.80;99.90
70550;DHT22;58101;48.658;2.328;2023-07-29T00:35:30;19.80;99.90
70550;DHT22;58101;48.658;2.328;2023-07-29T00:37:55;19.80;99.90
70550;DHT22;58101;48.658;2.328;2023-07-29T00:40:22;19.70;99.90
70550;DHT22;58101;48.658;2.328;2023-07-29T00:42:49;19.70;99.90
70550;DHT22;58101;48.658;2.328;2023-07-29T00:45:15;19.60;99.90
70550;DHT22;58101;48.658;2.328;2023-07-29T00:47:42;19.60;99.90
70550;DHT22;58101;48.658;2.328;2023-07-29T00:50:09;19.60;99.90
70550;DHT22;58101;48.658;2.328;2023-07-29T00:52:36;19.60;99.90
70550;DHT22;58101;48.658;2.328;2023-07-29T00:55:02;19.50;99.90
70550;DHT22;58101;48.658;2.328;2023-07-29T00:57:29;19.60;99.90
70550;DHT22;58101;48.658;2.328;2023-07-29T00:59:55;19.50;99.90
70550;DHT22;58101;48.658;2.328;2023-07-29T01:02:21;19.50;99.90
70550;DHT22;58101;48.658;2.328;2023-07-29T01:04:55;19.50;99.90
70550;DHT22;58101;48.658;2.328;2023-07-29T01:07:35;19.50;99.90
70550;DHT22;58101;48.658;2.328;2023-07-29T01:12:56;19.40;99.90
70550;DHT22;58101;48.658;2.328;2023-07-29T01:15:50;19.30;99.90
70550;DHT22;58101;48.658;2.328;2023-07-29T01:18:25;19.30;99.90
70550;DHT22;58101;48.658;2.328;2023-07-29T01:20:53;19.20;99.90
70550;DHT22;58101;48.658;2.328;2023-07-29T01:23:24;19.20;99.90
70550;DHT22;58101;48.658;2.328;2023-07-29T01:25:50;19.10;99.90
70550;DHT22;58101;48.658;2.328;2023-07-29T01:28:15;19.10;99.90
70550;DHT22;58101;48.658;2.328;2023-07-29T01:30:42;19.10;99.90
70550;DHT22;58101;48.658;2.328;2023-07-29T01:33:18;19.10;99.90
70550;DHT22;58101;48.658;2.328;2023-07-29T01:35:48;19.00;99.90
70550;DHT22;58101;48.658;2.328;2023-07-29T01:38:22;19.00;99.90
70550;DHT22;58101;48.658;2.328;2023-07-29T01:40:50;19.00;99.90
70550;DHT22;58101;48.658;2.328;2023-07-29T01:43:18;19.00;99.90
70550;DHT22;58101;48.658;2.328;2023-07-29T01:45:49;18.90;99.90
70550;DHT22;58101;48.658;2.328;2023-07-29T01:48:14;18.90;99.90
70550;DHT22;58101;48.658;2.328;2023-07-29T01:50:40;18.90;99.90
70550;DHT22;58101;48.658;2.328;2023-07-29T01:53:06;18.80;99.90
70550;DHT22;58101;48.658;2.328;2023-07-29T01:55:33;18.80;99.90
70550;DHT22;58101;48.658;2.328;2023-07-29T01:57:58;18.70;99.90
70550;DHT22;58101;48.658;2.328;2023-07-29T02:00:24;18.80;99.90
70550;DHT22;58101;48.658;2.328;2023-07-29T02:02:50;18.70;99.90
70550;DHT22;58101;48.658;2.328;2023-07-29T02:05:15;18.70;99.90
70550;DHT22;58101;48.658;2.328;2023-07-29T02:07:41;18.70;99.90
70550;DHT22;58101;48.658;2.328;2023-07-29T02:10:07;18.70;99.90
70550;DHT22;58101;48.658;2.328;2023-07-29T02:12:33;18.70;99.90
70550;DHT22;58101;48.658;2.328;2023-07-29T02:14:58;18.70;99.90
70550;DHT22;58101;48.658;2.328;2023-07-29T02:17:24;18.60;99.90
70550;DHT22;58101;48.658;2.328;2023-07-29T02:19:51;18.60;99.90
70550;DHT22;58101;48.658;2.328;2023-07-29T02:22:17;18.60;99.90
70550;DHT22;58101;48.658;2.328;2023-07-29T02:24:44;18.60;99.90
70550;DHT22;58101;48.658;2.328;2023-07-29T02:27:09;18.60;99.90
70550;DHT22;58101;48.658;2.328;2023-07-29T02:29:35;18.60;99.90
70550;DHT22;58101;48.658;2.328;2023-07-29T02:32:01;18.60;99.90
70550;DHT22;58101;48.658;2.328;2023-07-29T02:34:26;18.60;99.90
70550;DHT22;58101;48.658;2.328;2023-07-29T02:36:52;18.50;99.90
70550;DHT22;58101;48.658;2.328;2023-07-29T02:39:17;18.50;99.90
70550;DHT22;58101;48.658;2.328;2023-07-29T02:41:43;18.40;99.90
70550;DHT22;58101;48.658;2.328;2023-07-29T02:44:09;18.40;99.90
70550;DHT22;58101;48.658;2.328;2023-07-29T02:46:34;18.40;99.90
70550;DHT22;58101;48.658;2.328;2023-07-29T02:49:02;18.30;99.90
70550;DHT22;58101;48.658;2.328;2023-07-29T02:51:28;18.30;99.90
70550;DHT22;58101;48.658;2.328;2023-07-29T02:53:54;18.20;99.90
70550;DHT22;58101;48.658;2.328;2023-07-29T02:56:19;18.20;99.90
70550;DHT22;58101;48.658;2.328;2023-07-29T02:58:45;18.10;99.90
70550;DHT22;58101;48.658;2.328;2023-07-29T03:01:11;18.10;99.90
70550;DHT22;58101;48.658;2.328;2023-07-29T03:03:39;18.10;99.90
70550;DHT22;58101;48.658;2.328;2023-07-29T03:06:07;18.10;99.90
70550;DHT22;58101;48.658;2.328;2023-07-29T03:08:34;18.00;99.90
70550;DHT22;58101;48.658;2.328;2023-07-29T03:11:06;18.00;99.90
70550;DHT22;58101;48.658;2.328;2023-07-29T03:13:32;18.00;99.90
70550;DHT22;58101;48.658;2.328;2023-07-29T03:16:09;17.90;99.90
70550;DHT22;58101;48.658;2.328;2023-07-29T03:18:35;17.90;99.90
70550;DHT22;58101;48.658;2.328;2023-07-29T03:21:02;17.90;99.90
70550;DHT22;58101;48.658;2.328;2023-07-29T03:23:28;17.90;99.90
70550;DHT22;58101;48.658;2.328;2023-07-29T03:25:58;17.90;99.90
70550;DHT22;58101;48.658;2.328;2023-07-29T03:28:26;17.90;99.90
70550;DHT22;58101;48.658;2.328;2023-07-29T03:30:56;17.90;99.90
70550;DHT22;58101;48.658;2.328;2023-07-29T03:33:22;17.90;99.90
70550;DHT22;58101;48.658;2.328;2023-07-29T03:35:48;17.80;99.90
70550;DHT22;58101;48.658;2.328;2023-07-29T03:38:14;17.90;99.90
70550;DHT22;58101;48.658;2.328;2023-07-29T03:40:41;17.80;99.90
70550;DHT22;58101;48.658;2.328;2023-07-29T03:43:07;17.80;99.90
70550;DHT22;58101;48.658;2.328;2023-07-29T03:45:36;17.80;99.90
70550;DHT22;58101;48.658;2.328;2023-07-29T03:48:03;17.80;99.90
70550;DHT22;58101;48.658;2.328;2023-07-29T03:50:29;17.90;99.90
70550;DHT22;58101;48.658;2.328;2023-07-29T03:52:56;17.80;99.90
70550;DHT22;58101;48.658;2.328;2023-07-29T03:55:22;17.80;99.90
70550;DHT22;58101;48.658;2.328;2023-07-29T03:57:48;17.90;99.90
70550;DHT22;58101;48.658;2.328;2023-07-29T04:00:14;17.90;99.90
70550;DHT22;58101;48.658;2.328;2023-07-29T04:02:42;17.80;99.90
70550;DHT22;58101;48.658;2.328;2023-07-29T04:05:08;17.80;99.90
70550;DHT22;58101;48.658;2.328;2023-07-29T04:07:34;17.70;99.90
70550;DHT22;58101;48.658;2.328;2023-07-29T04:10:01;17.80;99.90
70550;DHT22;58101;48.658;2.328;2023-07-29T04:12:28;17.80;99.90
70550;DHT22;58101;48.658;2.328;2023-07-29T04:14:53;17.80;99.90
70550;DHT22;58101;48.658;2.328;2023-07-29T04:17:19;17.80;99.90
70550;DHT22;58101;48.658;2.328;2023-07-29T04:19:45;17.90;99.90
70550;DHT22;58101;48.658;2.328;2023-07-29T04:22:10;17.90;99.90
70550;DHT22;58101;48.658;2.328;2023-07-29T04:24:36;17.90;99.90
70550;DHT22;58101;48.658;2.328;2023-07-29T04:27:01;18.00;99.90
70550;DHT22;58101;48.658;2.328;2023-07-29T04:29:27;18.00;99.90
70550;DHT22;58101;48.658;2.328;2023-07-29T04:31:53;18.00;99.90
70550;DHT22;58101;48.658;2.328;2023-07-29T04:34:19;18.00;99.90
70550;DHT22;58101;48.658;2.328;2023-07-29T04:36:45;18.00;99.90
70550;DHT22;58101;48.658;2.328;2023-07-29T04:39:11;18.00;99.90
70550;DHT22;58101;48.658;2.328;2023-07-29T04:41:37;18.00;99.90
70550;DHT22;58101;48.658;2.328;2023-07-29T04:44:02;18.00;99.90
70550;DHT22;58101;48.658;2.328;2023-07-29T04:46:28;18.00;99.90
70550;DHT22;58101;48.658;2.328;2023-07-29T04:48:54;18.00;99.90
70550;DHT22;58101;48.658;2.328;2023-07-29T04:51:19;18.00;99.90
70550;DHT22;58101;48.658;2.328;2023-07-29T04:53:45;18.00;99.90
70550;DHT22;58101;48.658;2.328;2023-07-29T04:56:11;17.90;99.90
70550;DHT22;58101;48.658;2.328;2023-07-29T04:58:37;17.90;99.90
70550;DHT22;58101;48.658;2.328;2023-07-29T05:01:03;17.90;99.90
70550;DHT22;58101;48.658;2.328;2023-07-29T05:03:28;17.90;99.90
70550;DHT22;58101;48.658;2.328;2023-07-29T05:05:54;17.90;99.90
70550;DHT22;58101;48.658;2.328;2023-07-29T05:08:21;17.90;99.90
70550;DHT22;58101;48.658;2.328;2023-07-29T05:10:50;17.90;99.90
70550;DHT22;58101;48.658;2.328;2023-07-29T05:13:17;17.90;99.90
70550;DHT22;58101;48.658;2.328;2023-07-29T05:15:43;17.90;99.90
70550;DHT22;58101;48.658;2.328;2023-07-29T05:18:08;17.90;99.90
70550;DHT22;58101;48.658;2.328;2023-07-29T05:20:34;17.90;99.90
70550;DHT22;58101;48.658;2.328;2023-07-29T05:23:00;17.90;99.90
70550;DHT22;58101;48.658;2.328;2023-07-29T05:25:26;17.80;99.90
70550;DHT22;58101;48.658;2.328;2023-07-29T05:27:52;17.90;99.90
70550;DHT22;58101;48.658;2.328;2023-07-29T05:30:17;17.90;99.90
70550;DHT22;58101;48.658;2.328;2023-07-29T05:32:43;17.90;99.90
70550;DHT22;58101;48.658;2.328;2023-07-29T05:35:08;17.90;99.90
70550;DHT22;58101;48.658;2.328;2023-07-29T05:37:37;17.90;99.90
70550;DHT22;58101;48.658;2.328;2023-07-29T05:40:06;17.90;99.90
70550;DHT22;58101;48.658;2.328;2023-07-29T05:42:32;18.00;99.90
70550;DHT22;58101;48.658;2.328;2023-07-29T05:44:58;18.00;99.90
70550;DHT22;58101;48.658;2.328;2023-07-29T05:47:23;18.00;99.90
70550;DHT22;58101;48.658;2.328;2023-07-29T05:49:49;18.10;99.90
70550;DHT22;58101;48.658;2.328;2023-07-29T05:52:15;18.10;99.90
70550;DHT22;58101;48.658;2.328;2023-07-29T05:54:40;18.20;99.90
70550;DHT22;58101;48.658;2.328;2023-07-29T05:57:11;18.20;99.90
70550;DHT22;58101;48.658;2.328;2023-07-29T05:59:37;18.20;99.90
70550;DHT22;58101;48.658;2.328;2023-07-29T06:02:06;18.20;99.90
70550;DHT22;58101;48.658;2.328;2023-07-29T06:04:32;18.20;99.90
70550;DHT22;58101;48.658;2.328;2023-07-29T06:06:57;18.30;99.90
70550;DHT22;58101;48.658;2.328;2023-07-29T06:09:23;18.30;99.90
70550;DHT22;58101;48.658;2.328;2023-07-29T06:11:48;18.40;99.90
70550;DHT22;58101;48.658;2.328;2023-07-29T06:14:14;18.40;99.90
70550;DHT22;58101;48.658;2.328;2023-07-29T06:16:40;18.40;99.90
70550;DHT22;58101;48.658;2.328;2023-07-29T06:19:05;18.40;99.90
70550;DHT22;58101;48.658;2.328;2023-07-29T06:21:34;18.40;99.90
70550;DHT22;58101;48.658;2.328;2023-07-29T06:23:59;18.50;99.90
70550;DHT22;58101;48.658;2.328;2023-07-29T06:26:25;18.50;99.90
70550;DHT22;58101;48.658;2.328;2023-07-29T06:28:51;18.60;99.90
70550;DHT22;58101;48.658;2.328;2023-07-29T06:31:16;18.60;99.90
70550;DHT22;58101;48.658;2.328;2023-07-29T06:33:44;18.70;99.90
70550;DHT22;58101;48.658;2.328;2023-07-29T06:36:10;18.80;99.90
70550;DHT22;58101;48.658;2.328;2023-07-29T06:38:36;18.90;99.90
70550;DHT22;58101;48.658;2.328;2023-07-29T06:41:02;19.10;99.90
70550;DHT22;58101;48.658;2.328;2023-07-29T06:43:28;19.10;99.90
70550;DHT22;58101;48.658;2.328;2023-07-29T06:45:53;19.10;99.90
70550;DHT22;58101;48.658;2.328;2023-07-29T06:48:19;19.20;99.90
70550;DHT22;58101;48.658;2.328;2023-07-29T06:50:45;19.30;99.90
70550;DHT22;58101;48.658;2.328;2023-07-29T06:53:11;19.50;99.90
70550;DHT22;58101;48.658;2.328;2023-07-29T06:55:37;19.70;99.90
70550;DHT22;58101;48.658;2.328;2023-07-29T06:58:03;19.90;99.90
70550;DHT22;58101;48.658;2.328;2023-07-29T07:00:28;19.80;99.90
70550;DHT22;58101;48.658;2.328;2023-07-29T07:02:54;19.70;99.90
70550;DHT22;58101;48.658;2.328;2023-07-29T07:05:20;19.60;99.90
70550;DHT22;58101;48.658;2.328;2023-07-29T07:07:45;19.60;99.90
70550;DHT22;58101;48.658;2.328;2023-07-29T07:10:11;19.50;99.90
70550;DHT22;58101;48.658;2.328;2023-07-29T07:12:36;19.40;99.90
70550;DHT22;58101;48.658;2.328;2023-07-29T07:15:02;19.30;99.90
70550;DHT22;58101;48.658;2.328;2023-07-29T07:17:28;19.30;99.90
70550;DHT22;58101;48.658;2.328;2023-07-29T07:19:54;19.10;99.90
70550;DHT22;58101;48.658;2.328;2023-07-29T07:22:19;19.10;99.90
70550;DHT22;58101;48.658;2.328;2023-07-29T07:24:45;19.10;99.90
70550;DHT22;58101;48.658;2.328;2023-07-29T07:27:11;19.10;99.90
70550;DHT22;58101;48.658;2.328;2023-07-29T07:29:36;19.20;99.90
70550;DHT22;58101;48.658;2.328;2023-07-29T07:32:02;19.30;99.90
70550;DHT22;58101;48.658;2.328;2023-07-29T07:34:28;19.30;99.90
70550;DHT22;58101;48.658;2.328;2023-07-29T07:36:53;19.40;99.90
70550;DHT22;58101;48.658;2.328;2023-07-29T07:39:19;19.50;99.90
70550;DHT22;58101;48.658;2.328;2023-07-29T07:41:45;19.60;99.90
70550;DHT22;58101;48.658;2.328;2023-07-29T07:44:10;19.60;99.90
70550;DHT22;58101;48.658;2.328;2023-07-29T07:46:38;19.70;99.90
70550;DHT22;58101;48.658;2.328;2023-07-29T07:49:06;19.70;99.90
70550;DHT22;58101;48.658;2.328;2023-07-29T07:51:32;19.60;99.90
70550;DHT22;58101;48.658;2.328;2023-07-29T07:53:57;19.70;99.90
70550;DHT22;58101;48.658;2.328;2023-07-29T07:56:23;19.70;99.90
70550;DHT22;58101;48.658;2.328;2023-07-29T07:58:49;19.60;99.90
70550;DHT22;58101;48.658;2.328;2023-07-29T08:01:14;19.70;99.90
70550;DHT22;58101;48.658;2.328;2023-07-29T08:03:40;19.70;99.90
70550;DHT22;58101;48.658;2.328;2023-07-29T08:06:05;19.80;99.90
70550;DHT22;58101;48.658;2.328;2023-07-29T08:08:31;19.70;99.90
70550;DHT22;58101;48.658;2.328;2023-07-29T08:10:57;19.80;99.90
70550;DHT22;58101;48.658;2.328;2023-07-29T08:13:23;20.00;99.90
70550;DHT22;58101;48.658;2.328;2023-07-29T08:15:52;20.20;99.90
70550;DHT22;58101;48.658;2.328;2023-07-29T08:18:18;20.40;99.90
70550;DHT22;58101;48.658;2.328;2023-07-29T08:23:21;20.80;99.90
70550;DHT22;58101;48.658;2.328;2023-07-29T08:25:57;21.00;99.90
70550;DHT22;58101;48.658;2.328;2023-07-29T08:28:31;21.10;99.90
70550;DHT22;58101;48.658;2.328;2023-07-29T08:30:57;21.30;99.90
70550;DHT22;58101;48.658;2.328;2023-07-29T08:33:23;21.30;99.90
70550;DHT22;58101;48.658;2.328;2023-07-29T08:35:49;21.40;99.90
70550;DHT22;58101;48.658;2.328;2023-07-29T08:38:16;21.50;99.90
70550;DHT22;58101;48.658;2.328;2023-07-29T08:41:35;21.60;99.90
70550;DHT22;58101;48.658;2.328;2023-07-29T08:43:39;21.50;99.90
70550;DHT22;58101;48.658;2.328;2023-07-29T08:46:06;21.60;99.90
70550;DHT22;58101;48.658;2.328;2023-07-29T08:48:40;21.70;99.90
70550;DHT22;58101;48.658;2.328;2023-07-29T08:51:08;21.80;99.90
70550;DHT22;58101;48.658;2.328;2023-07-29T08:53:35;22.00;99.90
70550;DHT22;58101;48.658;2.328;2023-07-29T08:56:01;22.30;99.90
70550;DHT22;58101;48.658;2.328;2023-07-29T08:58:26;22.70;99.90
70550;DHT22;58101;48.658;2.328;2023-07-29T09:00:52;22.90;99.90
70550;DHT22;58101;48.658;2.328;2023-07-29T09:03:19;23.20;99.90
70550;DHT22;58101;48.658;2.328;2023-07-29T09:05:47;23.40;99.70
70550;DHT22;58101;48.658;2.328;2023-07-29T09:08:13;23.60;98.10
70550;DHT22;58101;48.658;2.328;2023-07-29T09:10:39;23.60;96.70
70550;DHT22;58101;48.658;2.328;2023-07-29T09:13:05;23.60;96.70
70550;DHT22;58101;48.658;2.328;2023-07-29T09:15:32;23.70;97.00
70550;DHT22;58101;48.658;2.328;2023-07-29T09:17:58;23.90;95.70
70550;DHT22;58101;48.658;2.328;2023-07-29T09:20:28;23.80;95.80
70550;DHT22;58101;48.658;2.328;2023-07-29T09:22:55;23.50;95.60
70550;DHT22;58101;48.658;2.328;2023-07-29T09:25:27;23.30;97.60
70550;DHT22;58101;48.658;2.328;2023-07-29T09:28:00;23.20;99.00
70550;DHT22;58101;48.658;2.328;2023-07-29T09:30:26;22.80;99.70
70550;DHT22;58101;48.658;2.328;2023-07-29T09:32:58;22.70;99.90
70550;DHT22;58101;48.658;2.328;2023-07-29T09:35:27;22.80;99.90
70550;DHT22;58101;48.658;2.328;2023-07-29T09:37:53;22.80;99.90
70550;DHT22;58101;48.658;2.328;2023-07-29T09:40:19;22.90;99.90
70550;DHT22;58101;48.658;2.328;2023-07-29T09:42:55;23.10;98.90
70550;DHT22;58101;48.658;2.328;2023-07-29T09:45:25;23.30;98.40
70550;DHT22;58101;48.658;2.328;2023-07-29T09:47:52;23.10;97.50
70550;DHT22;58101;48.658;2.328;2023-07-29T09:50:18;22.80;98.20
70550;DHT22;58101;48.658;2.328;2023-07-29T09:52:44;22.60;99.90
70550;DHT22;58101;48.658;2.328;2023-07-29T09:55:13;22.40;99.90
70550;DHT22;58101;48.658;2.328;2023-07-29T09:57:43;22.30;99.90
70550;DHT22;58101;48.658;2.328;2023-07-29T10:00:11;22.20;99.90
70550;DHT22;58101;48.658;2.328;2023-07-29T10:02:38;22.10;99.90
70550;DHT22;58101;48.658;2.328;2023-07-29T10:05:06;22.00;99.90
70550;DHT22;58101;48.658;2.328;2023-07-29T10:07:31;22.10;99.90
70550;DHT22;58101;48.658;2.328;2023-07-29T10:09:58;22.10;99.90
70550;DHT22;58101;48.658;2.328;2023-07-29T10:12:24;22.10;99.90
70550;DHT22;58101;48.658;2.328;2023-07-29T10:14:50;22.00;99.90
70550;DHT22;58101;48.658;2.328;2023-07-29T10:17:16;21.90;99.90
70550;DHT22;58101;48.658;2.328;2023-07-29T10:19:43;21.90;99.90
70550;DHT22;58101;48.658;2.328;2023-07-29T10:22:12;21.90;99.90
70550;DHT22;58101;48.658;2.328;2023-07-29T10:24:39;21.90;99.90
70550;DHT22;58101;48.658;2.328;2023-07-29T10:27:07;21.90;99.90
70550;DHT22;58101;48.658;2.328;2023-07-29T10:29:38;21.90;99.90
70550;DHT22;58101;48.658;2.328;2023-07-29T10:32:05;21.70;99.90
70550;DHT22;58101;48.658;2.328;2023-07-29T10:34:32;21.60;99.90
70550;DHT22;58101;48.658;2.328;2023-07-29T10:36:59;21.50;99.90
70550;DHT22;58101;48.658;2.328;2023-07-29T10:39:25;21.40;99.90
70550;DHT22;58101;48.658;2.328;2023-07-29T10:41:58;21.30;99.90
70550;DHT22;58101;48.658;2.328;2023-07-29T10:47:19;21.20;99.90
70550;DHT22;58101;48.658;2.328;2023-07-29T10:49:47;21.30;99.90
70550;DHT22;58101;48.658;2.328;2023-07-29T10:52:15;21.50;99.90
70550;DHT22;58101;48.658;2.328;2023-07-29T10:54:48;21.70;99.90
70550;DHT22;58101;48.658;2.328;2023-07-29T10:57:15;22.00;99.90
70550;DHT22;58101;48.658;2.328;2023-07-29T10:59:48;22.30;99.90
70550;DHT22;58101;48.658;2.328;2023-07-29T11:02:20;22.40;99.90
70550;DHT22;58101;48.658;2.328;2023-07-29T11:04:47;22.50;99.90
70550;DHT22;58101;48.658;2.328;2023-07-29T11:09:58;22.30;99.90
70550;DHT22;58101;48.658;2.328;2023-07-29T11:12:43;22.20;99.90
70550;DHT22;58101;48.658;2.328;2023-07-29T11:17:44;22.20;99.90
70550;DHT22;58101;48.658;2.328;2023-07-29T11:20:13;22.60;99.90
70550;DHT22;58101;48.658;2.328;2023-07-29T11:22:39;23.00;99.90
70550;DHT22;58101;48.658;2.328;2023-07-29T11:25:10;23.30;99.90
70550;DHT22;58101;48.658;2.328;2023-07-29T11:27:36;23.60;99.50
70550;DHT22;58101;48.658;2.328;2023-07-29T11:30:08;23.60;99.40
70550;DHT22;58101;48.658;2.328;2023-07-29T11:32:35;23.50;99.30
70550;DHT22;58101;48.658;2.328;2023-07-29T11:35:29;23.50;99.90
70550;DHT22;58101;48.658;2.328;2023-07-29T11:37:57;23.30;99.60
70550;DHT22;58101;48.658;2.328;2023-07-29T11:40:23;23.30;99.70
70550;DHT22;58101;48.658;2.328;2023-07-29T11:42:51;23.10;99.50
70550;DHT22;58101;48.658;2.328;2023-07-29T11:45:18;23.00;99.90
70550;DHT22;58101;48.658;2.328;2023-07-29T11:47:45;23.00;99.90
70550;DHT22;58101;48.658;2.328;2023-07-29T11:50:12;23.30;99.90
70550;DHT22;58101;48.658;2.328;2023-07-29T11:52:44;23.80;99.20
70550;DHT22;58101;48.658;2.328;2023-07-29T11:55:10;24.30;96.60
70550;DHT22;58101;48.658;2.328;2023-07-29T11:57:37;24.50;96.90
70550;DHT22;58101;48.658;2.328;2023-07-29T12:00:08;24.60;97.30
70550;DHT22;58101;48.658;2.328;2023-07-29T12:02:39;24.70;95.00
70550;DHT22;58101;48.658;2.328;2023-07-29T12:05:06;24.80;93.90
70550;DHT22;58101;48.658;2.328;2023-07-29T12:07:38;25.20;94.80
70550;DHT22;58101;48.658;2.328;2023-07-29T12:10:04;25.60;93.30
70550;DHT22;58101;48.658;2.328;2023-07-29T12:12:30;26.00;93.30
70550;DHT22;58101;48.658;2.328;2023-07-29T12:14:56;26.00;90.00
70550;DHT22;58101;48.658;2.328;2023-07-29T12:17:21;25.90;85.50
70550;DHT22;58101;48.658;2.328;2023-07-29T12:19:47;25.60;90.50
70550;DHT22;58101;48.658;2.328;2023-07-29T12:22:18;25.50;91.40
70550;DHT22;58101;48.658;2.328;2023-07-29T12:24:44;25.50;90.10
70550;DHT22;58101;48.658;2.328;2023-07-29T12:27:14;25.30;90.50
70550;DHT22;58101;48.658;2.328;2023-07-29T12:29:44;25.00;90.00
70550;DHT22;58101;48.658;2.328;2023-07-29T12:32:11;24.90;91.00
70550;DHT22;58101;48.658;2.328;2023-07-29T12:34:38;24.90;91.20
70550;DHT22;58101;48.658;2.328;2023-07-29T12:37:05;24.90;89.50
70550;DHT22;58101;48.658;2.328;2023-07-29T12:39:39;24.90;89.80
70550;DHT22;58101;48.658;2.328;2023-07-29T12:42:05;24.90;89.90
70550;DHT22;58101;48.658;2.328;2023-07-29T12:44:37;24.80;90.90
70550;DHT22;58101;48.658;2.328;2023-07-29T12:47:05;24.60;91.90
70550;DHT22;58101;48.658;2.328;2023-07-29T12:49:31;24.40;92.20
70550;DHT22;58101;48.658;2.328;2023-07-29T12:51:57;24.20;93.10
70550;DHT22;58101;48.658;2.328;2023-07-29T12:54:23;24.10;94.50
70550;DHT22;58101;48.658;2.328;2023-07-29T12:56:49;24.20;94.00
70550;DHT22;58101;48.658;2.328;2023-07-29T12:59:15;24.70;95.20
70550;DHT22;58101;48.658;2.328;2023-07-29T13:01:40;25.20;91.20
70550;DHT22;58101;48.658;2.328;2023-07-29T13:04:06;25.60;90.00
70550;DHT22;58101;48.658;2.328;2023-07-29T13:06:32;25.80;84.60
70550;DHT22;58101;48.658;2.328;2023-07-29T13:08:57;25.70;84.80
70550;DHT22;58101;48.658;2.328;2023-07-29T13:11:23;25.60;83.30
70550;DHT22;58101;48.658;2.328;2023-07-29T13:13:49;25.30;85.30
70550;DHT22;58101;48.658;2.328;2023-07-29T13:16:14;25.20;87.30
70550;DHT22;58101;48.658;2.328;2023-07-29T13:18:40;25.40;88.70
70550;DHT22;58101;48.658;2.328;2023-07-29T13:21:06;25.50;85.60
70550;DHT22;58101;48.658;2.328;2023-07-29T13:23:32;25.70;85.40
70550;DHT22;58101;48.658;2.328;2023-07-29T13:25:57;25.90;82.40
70550;DHT22;58101;48.658;2.328;2023-07-29T13:28:23;25.80;81.40
70550;DHT22;58101;48.658;2.328;2023-07-29T13:30:49;25.60;83.70
70550;DHT22;58101;48.658;2.328;2023-07-29T13:33:15;25.70;84.70
70550;DHT22;58101;48.658;2.328;2023-07-29T13:35:40;25.50;83.70
70550;DHT22;58101;48.658;2.328;2023-07-29T13:38:06;25.30;86.60
70550;DHT22;58101;48.658;2.328;2023-07-29T13:40:32;25.10;85.00
70550;DHT22;58101;48.658;2.328;2023-07-29T13:42:57;24.90;86.10
70550;DHT22;58101;48.658;2.328;2023-07-29T13:45:23;24.70;88.50
70550;DHT22;58101;48.658;2.328;2023-07-29T13:47:49;24.70;90.50
70550;DHT22;58101;48.658;2.328;2023-07-29T13:50:15;24.70;90.00
70550;DHT22;58101;48.658;2.328;2023-07-29T13:52:41;24.60;90.80
70550;DHT22;58101;48.658;2.328;2023-07-29T13:55:07;24.80;92.30
70550;DHT22;58101;48.658;2.328;2023-07-29T13:57:33;24.90;90.50
70550;DHT22;58101;48.658;2.328;2023-07-29T13:59:58;24.90;91.30
70550;DHT22;58101;48.658;2.328;2023-07-29T14:02:24;24.80;90.60
70550;DHT22;58101;48.658;2.328;2023-07-29T14:04:53;24.80;90.40
70550;DHT22;58101;48.658;2.328;2023-07-29T14:07:19;24.80;90.40
70550;DHT22;58101;48.658;2.328;2023-07-29T14:09:45;24.80;91.00
70550;DHT22;58101;48.658;2.328;2023-07-29T14:12:10;24.70;91.10
70550;DHT22;58101;48.658;2.328;2023-07-29T14:14:39;24.80;90.80
70550;DHT22;58101;48.658;2.328;2023-07-29T14:17:04;24.90;91.90
70550;DHT22;58101;48.658;2.328;2023-07-29T14:19:31;24.80;90.70
70550;DHT22;58101;48.658;2.328;2023-07-29T14:21:56;24.70;91.70
70550;DHT22;58101;48.658;2.328;2023-07-29T14:24:22;24.50;92.40
70550;DHT22;58101;48.658;2.328;2023-07-29T14:26:48;24.30;95.80
70550;DHT22;58101;48.658;2.328;2023-07-29T14:29:13;24.10;99.90
70550;DHT22;58101;48.658;2.328;2023-07-29T14:31:39;24.00;99.90
70550;DHT22;58101;48.658;2.328;2023-07-29T14:34:05;24.10;99.90
70550;DHT22;58101;48.658;2.328;2023-07-29T14:36:30;24.10;99.90
70550;DHT22;58101;48.658;2.328;2023-07-29T14:38:56;23.90;99.90
70550;DHT22;58101;48.658;2.328;2023-07-29T14:41:21;23.90;99.90
70550;DHT22;58101;48.658;2.328;2023-07-29T14:43:47;23.80;99.90
70550;DHT22;58101;48.658;2.328;2023-07-29T14:46:13;23.90;99.90
70550;DHT22;58101;48.658;2.328;2023-07-29T14:48:39;24.10;99.90
70550;DHT22;58101;48.658;2.328;2023-07-29T14:51:04;24.30;99.90
70550;DHT22;58101;48.658;2.328;2023-07-29T14:53:30;24.50;99.90
70550;DHT22;58101;48.658;2.328;2023-07-29T14:55:55;24.60;98.50
70550;DHT22;58101;48.658;2.328;2023-07-29T14:58:21;24.60;97.10
70550;DHT22;58101;48.658;2.328;2023-07-29T15:00:47;24.80;95.40
70550;DHT22;58101;48.658;2.328;2023-07-29T15:03:12;25.00;93.80
70550;DHT22;58101;48.658;2.328;2023-07-29T15:05:38;25.10;93.90
70550;DHT22;58101;48.658;2.328;2023-07-29T15:08:04;25.00;94.30
70550;DHT22;58101;48.658;2.328;2023-07-29T15:10:29;25.10;93.80
70550;DHT22;58101;48.658;2.328;2023-07-29T15:12:55;25.10;93.40
70550;DHT22;58101;48.658;2.328;2023-07-29T15:15:20;24.90;92.50
70550;DHT22;58101;48.658;2.328;2023-07-29T15:17:46;24.80;93.80
70550;DHT22;58101;48.658;2.328;2023-07-29T15:20:12;24.80;93.90
70550;DHT22;58101;48.658;2.328;2023-07-29T15:22:37;24.80;93.20
70550;DHT22;58101;48.658;2.328;2023-07-29T15:25:08;25.00;93.60
70550;DHT22;58101;48.658;2.328;2023-07-29T15:27:34;25.00;92.90
70550;DHT22;58101;48.658;2.328;2023-07-29T15:30:00;25.00;93.30
70550;DHT22;58101;48.658;2.328;2023-07-29T15:32:26;24.90;93.30
70550;DHT22;58101;48.658;2.328;2023-07-29T15:34:51;24.80;93.70
70550;DHT22;58101;48.658;2.328;2023-07-29T15:37:17;24.80;93.50
70550;DHT22;58101;48.658;2.328;2023-07-29T15:39:43;24.60;93.40
70550;DHT22;58101;48.658;2.328;2023-07-29T15:42:08;24.60;98.90